createdAt,value
2023-03-07T00:02:01.353Z,66.14
2023-03-07T00:04:32.000Z,64.97
2023-03-07T00:07:00.052Z,65.46
2023-03-07T00:09:33.263Z,66.30
2023-03-07T00:12:01.167Z,65.77
2023-03-07T00:14:35.077Z,65.77
2023-03-07T00:17:09.650Z,65.93
2023-03-07T00:19:47.747Z,66.53
2023-03-07T00:22:18.355Z,66.18
2023-03-07T00:24:51.936Z,65.60
2023-03-07T00:27:21.171Z,64.66
2023-03-07T00:29:51.096Z,63.52
2023-03-07T00:32:19.173Z,64.49
2023-03-07T00:34:49.566Z,64.94
2023-03-07T00:37:17.730Z,63.61
2023-03-07T00:39:52.184Z,64.19
2023-03-07T00:42:23.013Z,64.82
2023-03-07T00:44:52.273Z,64.63
2023-03-07T00:47:21.161Z,62.41
2023-03-07T00:49:49.006Z,63.88
2023-03-07T00:52:16.900Z,64.27
2023-03-07T00:54:44.972Z,64.84
2023-03-07T00:57:12.738Z,64.96
2023-03-07T00:59:43.165Z,65.20
2023-03-07T01:02:12.306Z,64.89
2023-03-07T01:04:40.131Z,65.39
2023-03-07T01:07:13.246Z,66.35
2023-03-07T01:09:41.119Z,65.70
2023-03-07T01:12:09.509Z,64.57
2023-03-07T01:14:37.333Z,65.20
2023-03-07T01:17:10.827Z,64.89
2023-03-07T01:19:42.684Z,64.47
2023-03-07T01:22:13.233Z,64.24
2023-03-07T01:24:45.317Z,64.13
2023-03-07T01:27:13.519Z,63.51
2023-03-07T01:29:50.480Z,63.85
2023-03-07T01:32:18.367Z,64.00
2023-03-07T01:35:00.432Z,63.56
2023-03-07T01:37:28.407Z,64.15
2023-03-07T01:39:58.834Z,63.72
2023-03-07T01:42:31.291Z,63.18
2023-03-07T01:45:06.823Z,62.62
2023-03-07T01:47:37.482Z,62.99
2023-03-07T01:50:10.040Z,63.62
2023-03-07T01:52:43.754Z,63.28
2023-03-07T01:55:14.583Z,63.70
2023-03-07T01:57:43.495Z,64.00
2023-03-07T02:00:20.876Z,62.98
2023-03-07T02:02:52.251Z,63.39
2023-03-07T02:05:30.512Z,64.75
2023-03-07T02:08:02.164Z,64.31
2023-03-07T02:10:30.450Z,63.82
2023-03-07T02:12:58.415Z,62.79
2023-03-07T02:15:27.560Z,63.62
2023-03-07T02:17:55.818Z,63.44
2023-03-07T02:20:32.898Z,63.22
2023-03-07T02:23:04.507Z,60.73
2023-03-07T02:25:38.206Z,59.82
2023-03-07T02:28:08.602Z,59.63
2023-03-07T02:30:40.698Z,59.54
2023-03-07T02:33:11.263Z,60.99
2023-03-07T02:35:46.256Z,59.29
2023-03-07T02:38:17.962Z,58.45
2023-03-07T02:40:47.838Z,59.79
2023-03-07T02:43:17.418Z,60.26
2023-03-07T02:46:01.154Z,60.66
2023-03-07T02:48:29.274Z,60.73
2023-03-07T02:50:57.112Z,62.05
2023-03-07T02:53:25.142Z,63.71
2023-03-07T02:55:52.882Z,64.40
2023-03-07T02:58:23.209Z,64.74
2023-03-07T03:00:51.071Z,65.21
2023-03-07T03:03:32.367Z,64.80
2023-03-07T03:06:01.776Z,64.12
2023-03-07T03:08:32.084Z,65.61
2023-03-07T03:11:00.066Z,66.47
2023-03-07T03:13:29.375Z,67.58
2023-03-07T03:15:59.958Z,66.75
2023-03-07T03:18:29.557Z,66.09
2023-03-07T03:20:57.485Z,65.61
2023-03-07T03:23:34.349Z,66.06
2023-03-07T03:26:05.191Z,65.89
2023-03-07T03:28:41.317Z,66.18
2023-03-07T03:31:12.041Z,66.23
2023-03-07T03:33:41.368Z,65.99
2023-03-07T03:36:14.323Z,66.43
2023-03-07T03:38:44.667Z,66.19
2023-03-07T03:41:15.734Z,64.43
2023-03-07T03:43:49.880Z,65.28
2023-03-07T03:46:19.785Z,65.22
2023-03-07T03:48:54.582Z,66.03
2023-03-07T03:51:23.570Z,67.31
2023-03-07T03:53:59.931Z,67.24
2023-03-07T03:56:28.790Z,67.90
2023-03-07T03:58:58.805Z,66.10
2023-03-07T04:01:31.131Z,64.82
2023-03-07T04:03:59.475Z,64.44
2023-03-07T04:06:29.063Z,64.22
2023-03-07T04:08:59.473Z,65.38
2023-03-07T04:11:27.963Z,64.78
2023-03-07T04:13:58.558Z,66.28
2023-03-07T04:16:32.278Z,65.21
2023-03-07T04:19:02.550Z,64.24
2023-03-07T04:21:30.398Z,63.75
2023-03-07T04:23:58.488Z,64.30
2023-03-07T04:26:28.325Z,64.60
2023-03-07T04:29:01.590Z,62.33
2023-03-07T04:31:29.915Z,63.55
2023-03-07T04:33:58.010Z,63.14
2023-03-07T04:36:28.755Z,62.03
2023-03-07T04:38:56.680Z,62.63
2023-03-07T04:41:29.193Z,62.86
2023-03-07T04:43:58.424Z,62.65
2023-03-07T04:46:29.095Z,62.26
2023-03-07T04:48:59.921Z,64.61
2023-03-07T04:51:32.151Z,63.50
2023-03-07T04:54:00.444Z,62.83
2023-03-07T04:56:34.211Z,64.88
2023-03-07T04:59:06.415Z,63.61
2023-03-07T05:01:34.666Z,65.33
2023-03-07T05:04:02.875Z,65.09
2023-03-07T05:06:37.704Z,64.45
2023-03-07T05:09:06.029Z,64.50
2023-03-07T05:11:34.368Z,64.95
2023-03-07T05:14:05.156Z,66.82
2023-03-07T05:16:33.674Z,66.23
2023-03-07T05:19:06.617Z,65.35
2023-03-07T05:21:37.920Z,64.39
2023-03-07T05:24:07.447Z,63.67
2023-03-07T05:26:35.358Z,63.98
2023-03-07T05:29:10.590Z,63.23
2023-03-07T05:31:38.642Z,62.34
2023-03-07T05:34:06.513Z,64.11
2023-03-07T05:36:35.982Z,63.10
2023-03-07T05:39:05.067Z,63.61
2023-03-07T05:41:43.753Z,63.55
2023-03-07T05:44:16.169Z,64.17
2023-03-07T05:46:46.832Z,63.03
2023-03-07T05:49:18.158Z,63.34
2023-03-07T05:51:45.989Z,63.15
2023-03-07T05:54:16.167Z,64.52
2023-03-07T05:56:44.759Z,63.69
2023-03-07T05:59:26.255Z,63.00
2023-03-07T06:02:00.116Z,62.17
2023-03-07T06:04:30.280Z,60.75
2023-03-07T06:07:00.727Z,61.11
2023-03-07T06:09:31.148Z,63.11
2023-03-07T06:12:07.361Z,62.23
2023-03-07T06:14:36.885Z,62.45
2023-03-07T06:17:05.034Z,61.84
2023-03-07T06:19:35.336Z,62.25
2023-03-07T06:22:04.890Z,63.26
2023-03-07T06:24:32.992Z,62.22
2023-03-07T06:27:01.350Z,60.28
2023-03-07T06:29:35.265Z,62.10
2023-03-07T06:32:07.871Z,61.58
2023-03-07T06:34:35.966Z,61.50
2023-03-07T06:37:04.441Z,62.21
2023-03-07T06:39:32.456Z,60.42
2023-03-07T06:42:02.782Z,62.00
2023-03-07T06:44:31.261Z,62.67
2023-03-07T06:46:59.355Z,61.73
2023-03-07T06:49:28.812Z,62.95
2023-03-07T06:51:58.413Z,63.36
2023-03-07T06:54:26.275Z,63.91
2023-03-07T06:56:55.172Z,63.92
2023-03-07T06:59:23.036Z,63.86
2023-03-07T07:01:54.201Z,62.92
2023-03-07T07:04:43.124Z,64.31
2023-03-07T07:07:12.466Z,65.24
2023-03-07T07:09:42.480Z,62.96
2023-03-07T07:12:10.870Z,63.94
2023-03-07T07:14:42.236Z,63.67
2023-03-07T07:17:11.464Z,64.01
2023-03-07T07:19:41.447Z,63.89
2023-03-07T07:22:12.094Z,64.54
2023-03-07T07:24:42.823Z,63.91
2023-03-07T07:27:12.573Z,62.96
2023-03-07T07:29:40.802Z,62.81
2023-03-07T07:32:14.936Z,62.51
2023-03-07T07:34:46.997Z,62.41
2023-03-07T07:37:20.389Z,61.36
2023-03-07T07:39:52.596Z,60.45
2023-03-07T07:42:20.635Z,59.94
2023-03-07T07:44:49.112Z,61.43
2023-03-07T07:47:28.492Z,60.30
2023-03-07T07:49:56.279Z,60.61
2023-03-07T07:52:24.162Z,62.15
2023-03-07T07:54:55.548Z,61.74
2023-03-07T07:57:23.500Z,61.53
2023-03-07T07:59:56.824Z,62.35
2023-03-07T08:02:25.529Z,61.13
2023-03-07T08:04:57.611Z,61.85
2023-03-07T08:07:25.718Z,62.95
2023-03-07T08:09:56.855Z,61.40
2023-03-07T08:12:27.065Z,61.95
2023-03-07T08:14:59.226Z,61.48
2023-03-07T08:17:27.183Z,61.72
2023-03-07T08:19:55.044Z,61.38
2023-03-07T08:22:25.430Z,59.84
2023-03-07T08:24:54.636Z,59.95
2023-03-07T08:27:22.700Z,61.25
2023-03-07T08:29:51.594Z,61.86
2023-03-07T08:32:19.478Z,61.06
2023-03-07T08:34:53.851Z,61.53
2023-03-07T08:37:24.862Z,60.66
2023-03-07T08:39:55.937Z,61.53
2023-03-07T08:42:28.415Z,60.62
2023-03-07T08:44:56.544Z,61.65
2023-03-07T08:47:24.576Z,59.33
2023-03-07T08:49:52.501Z,59.78
2023-03-07T08:52:20.768Z,60.44
2023-03-07T08:54:51.097Z,59.61
2023-03-07T08:57:20.353Z,59.60
2023-03-07T08:59:51.445Z,58.88
2023-03-07T09:02:19.423Z,57.46
2023-03-07T09:04:47.369Z,57.61
2023-03-07T09:07:15.529Z,57.31
2023-03-07T09:09:43.600Z,57.03
2023-03-07T09:12:14.984Z,56.82
2023-03-07T09:14:44.352Z,56.08
2023-03-07T09:17:14.387Z,55.33
2023-03-07T09:19:43.170Z,54.81
2023-03-07T09:22:14.296Z,53.89
2023-03-07T09:24:42.270Z,54.37
2023-03-07T09:27:11.484Z,56.00
2023-03-07T09:29:42.446Z,55.68
2023-03-07T09:32:11.884Z,56.04
2023-03-07T09:34:40.309Z,56.16
2023-03-07T09:37:18.881Z,57.21
2023-03-07T09:39:49.677Z,55.80
2023-03-07T09:42:23.404Z,56.44
2023-03-07T09:45:10.510Z,56.74
2023-03-07T09:47:57.887Z,54.73
2023-03-07T09:50:32.959Z,55.01
2023-03-07T09:53:03.378Z,54.76
2023-03-07T09:55:32.388Z,55.12
2023-03-07T09:58:04.130Z,54.19
2023-03-07T10:00:35.427Z,53.50
2023-03-07T10:03:13.237Z,53.56
2023-03-07T10:05:44.699Z,53.61
2023-03-07T10:08:15.438Z,54.18
2023-03-07T10:10:47.576Z,54.90
2023-03-07T10:13:23.868Z,54.58
2023-03-07T10:15:54.165Z,53.22
2023-03-07T10:18:46.291Z,54.03
2023-03-07T10:21:20.932Z,54.11
2023-03-07T10:24:21.122Z,53.81
2023-03-07T10:26:53.020Z,54.60
2023-03-07T10:29:26.378Z,53.80
2023-03-07T10:31:57.296Z,53.06
2023-03-07T10:34:32.394Z,52.86
2023-03-07T10:37:14.277Z,53.43
2023-03-07T10:39:46.753Z,53.82
2023-03-07T10:42:17.744Z,54.62
2023-03-07T10:44:48.910Z,54.71
2023-03-07T10:47:25.355Z,55.28
2023-03-07T10:49:57.976Z,54.90
2023-03-07T10:52:33.465Z,54.07
2023-03-07T10:55:35.871Z,54.20
2023-03-07T10:58:21.221Z,54.17
2023-03-07T11:01:30.964Z,53.33
2023-03-07T11:04:01.444Z,53.81
2023-03-07T11:06:37.066Z,52.73
2023-03-07T11:09:16.860Z,53.97
2023-03-07T11:11:58.974Z,54.87
2023-03-07T11:14:28.295Z,53.49
2023-03-07T11:16:57.691Z,53.52
2023-03-07T11:19:35.402Z,53.69
2023-03-07T11:22:19.693Z,53.74
2023-03-07T11:24:58.062Z,52.66
2023-03-07T11:27:31.986Z,52.37
2023-03-07T11:30:23.073Z,52.94
2023-03-07T11:33:05.969Z,53.48
2023-03-07T11:36:00.153Z,53.56
2023-03-07T11:38:46.093Z,54.52
2023-03-07T11:41:18.919Z,54.29
2023-03-07T11:43:55.645Z,53.82
2023-03-07T11:46:33.489Z,51.26
2023-03-07T11:49:17.070Z,50.92
2023-03-07T11:51:58.406Z,51.67
2023-03-07T11:54:35.521Z,52.59
2023-03-07T11:57:09.330Z,53.08
2023-03-07T11:59:55.540Z,52.27
2023-03-07T12:02:52.051Z,52.82
2023-03-07T12:05:34.582Z,51.79
2023-03-07T12:08:15.885Z,52.43
2023-03-07T12:10:52.552Z,52.83
2023-03-07T12:13:32.556Z,51.80
2023-03-07T12:16:08.969Z,50.62
2023-03-07T12:18:56.011Z,51.56
2023-03-07T12:21:35.850Z,51.94
2023-03-07T12:24:13.076Z,50.61
2023-03-07T12:26:51.048Z,51.11
2023-03-07T12:29:25.398Z,51.96
2023-03-07T12:31:55.402Z,51.21
2023-03-07T12:34:34.044Z,52.21
2023-03-07T12:37:05.988Z,51.56
2023-03-07T12:39:46.153Z,52.38
2023-03-07T12:42:27.908Z,51.63
2023-03-07T12:45:02.556Z,51.77
2023-03-07T12:47:34.438Z,52.20
2023-03-07T12:50:06.284Z,51.05
2023-03-07T12:52:43.580Z,48.95
2023-03-07T12:55:21.586Z,49.18
2023-03-07T12:57:59.020Z,49.35
2023-03-07T13:00:31.176Z,49.64
2023-03-07T13:03:02.427Z,50.09
2023-03-07T13:05:38.336Z,49.88
2023-03-07T13:08:12.802Z,50.76
2023-03-07T13:10:42.985Z,49.92
2023-03-07T13:13:44.263Z,49.95
2023-03-07T13:16:15.526Z,50.03
2023-03-07T13:18:45.426Z,49.71
2023-03-07T13:21:34.732Z,49.79
2023-03-07T13:24:34.954Z,48.32
2023-03-07T13:27:08.267Z,48.56
2023-03-07T13:30:18.272Z,48.88
2023-03-07T13:33:05.254Z,50.91
2023-03-07T13:35:54.565Z,50.49
2023-03-07T13:38:34.744Z,50.60
2023-03-07T13:41:04.678Z,50.86
2023-03-07T13:44:00.010Z,50.87
2023-03-07T13:47:03.182Z,49.48
2023-03-07T13:49:56.692Z,50.70
2023-03-07T13:52:46.239Z,50.56
2023-03-07T13:55:40.301Z,50.04
2023-03-07T13:58:21.918Z,49.22
2023-03-07T14:00:57.265Z,49.06
2023-03-07T14:03:30.307Z,46.74
2023-03-07T14:06:04.679Z,48.01
2023-03-07T14:08:38.791Z,47.22
2023-03-07T14:11:08.779Z,46.85
2023-03-07T14:13:52.986Z,48.06
2023-03-07T14:16:42.265Z,46.77
2023-03-07T14:19:22.463Z,46.38
2023-03-07T14:22:00.970Z,46.38
2023-03-07T14:24:42.052Z,46.31
2023-03-07T14:27:14.124Z,46.44
2023-03-07T14:29:49.973Z,48.02
2023-03-07T14:32:29.158Z,47.89
2023-03-07T14:35:01.361Z,49.32
2023-03-07T14:37:34.427Z,47.63
2023-03-07T14:40:26.880Z,49.92
2023-03-07T14:43:12.081Z,50.56
2023-03-07T14:45:43.190Z,50.84
2023-03-07T14:48:29.412Z,50.26
2023-03-07T14:50:59.086Z,49.77
2023-03-07T14:53:29.638Z,49.85
2023-03-07T14:55:58.804Z,49.33
2023-03-07T14:58:32.390Z,48.14
2023-03-07T15:01:01.601Z,49.10
2023-03-07T15:03:33.551Z,49.20
2023-03-07T15:06:03.658Z,48.96
2023-03-07T15:08:38.122Z,50.11
2023-03-07T15:11:14.405Z,51.07
2023-03-07T15:13:49.017Z,51.08
2023-03-07T15:16:26.362Z,51.37
2023-03-07T15:18:58.588Z,51.42
2023-03-07T15:21:33.021Z,51.09
2023-03-07T15:24:07.805Z,52.11
2023-03-07T15:26:39.123Z,52.52
2023-03-07T15:29:10.773Z,51.90
2023-03-07T15:31:55.539Z,52.45
2023-03-07T15:34:29.647Z,52.05
2023-03-07T15:37:20.461Z,52.24
2023-03-07T15:40:00.692Z,50.98
2023-03-07T15:42:30.933Z,51.10
2023-03-07T15:45:05.730Z,52.00
2023-03-07T15:47:39.735Z,52.23
2023-03-07T15:50:20.001Z,52.88
2023-03-07T15:52:55.232Z,52.04
2023-03-07T15:55:27.686Z,50.35
2023-03-07T15:57:57.899Z,50.92
2023-03-07T16:00:38.745Z,51.96
2023-03-07T16:03:25.587Z,52.10
2023-03-07T16:05:59.528Z,52.50
2023-03-07T16:08:27.920Z,53.12
2023-03-07T16:11:01.952Z,53.48
2023-03-07T16:13:31.770Z,53.56
2023-03-07T16:16:09.152Z,53.43
2023-03-07T16:18:37.142Z,54.27
2023-03-07T16:21:05.405Z,52.65
2023-03-07T16:23:34.213Z,52.50
2023-03-07T16:26:15.402Z,53.61
2023-03-07T16:28:44.364Z,51.85
2023-03-07T16:31:13.024Z,52.11
2023-03-07T16:33:41.396Z,53.39
2023-03-07T16:36:10.334Z,53.48
2023-03-07T16:38:38.196Z,53.94
2023-03-07T16:41:13.364Z,52.64
2023-03-07T16:43:45.169Z,52.17
2023-03-07T16:46:17.907Z,51.85
2023-03-07T16:48:49.238Z,52.49
2023-03-07T16:51:18.277Z,53.76
2023-03-07T16:53:48.896Z,54.52
2023-03-07T16:56:22.213Z,53.21
2023-03-07T16:58:50.573Z,52.88
2023-03-07T17:01:23.758Z,54.11
2023-03-07T17:03:56.370Z,52.58
2023-03-07T17:06:37.190Z,53.61
2023-03-07T17:09:06.621Z,53.94
2023-03-07T17:11:37.009Z,53.18
2023-03-07T17:14:07.141Z,53.31
2023-03-07T17:16:37.283Z,52.76
2023-03-07T17:19:05.123Z,52.04
2023-03-07T17:21:32.913Z,52.97
2023-03-07T17:24:04.608Z,52.79
2023-03-07T17:26:39.143Z,52.97
2023-03-07T17:29:09.983Z,52.88
2023-03-07T17:31:49.999Z,53.77
2023-03-07T17:34:23.372Z,53.87
2023-03-07T17:37:10.044Z,53.63
2023-03-07T17:39:40.846Z,54.29
2023-03-07T17:42:10.431Z,55.21
2023-03-07T17:44:39.402Z,55.24
2023-03-07T17:47:07.494Z,54.15
2023-03-07T17:49:38.642Z,54.86
2023-03-07T17:52:07.642Z,55.42
2023-03-07T17:54:38.432Z,54.77
2023-03-07T17:57:10.752Z,54.93
2023-03-07T17:59:41.103Z,56.03
2023-03-07T18:02:16.524Z,55.74
2023-03-07T18:04:47.430Z,54.77
2023-03-07T18:07:18.270Z,55.62
2023-03-07T18:09:53.631Z,55.57
2023-03-07T18:12:30.804Z,56.63
2023-03-07T18:15:02.319Z,55.35
2023-03-07T18:17:41.794Z,55.67
2023-03-07T18:20:17.022Z,55.97
2023-03-07T18:22:44.979Z,55.29
2023-03-07T18:25:17.685Z,54.22
2023-03-07T18:27:49.838Z,53.90
2023-03-07T18:30:19.380Z,53.91
2023-03-07T18:32:49.406Z,53.89
2023-03-07T18:35:17.306Z,53.94
2023-03-07T18:37:47.760Z,53.69
2023-03-07T18:40:22.041Z,55.01
2023-03-07T18:43:03.585Z,55.88
2023-03-07T18:45:36.938Z,56.09
2023-03-07T18:48:05.167Z,56.58
2023-03-07T18:50:33.127Z,55.41
2023-03-07T18:53:03.980Z,55.22
2023-03-07T18:55:37.313Z,55.68
2023-03-07T18:58:05.277Z,55.51
2023-03-07T19:00:35.145Z,55.53
2023-03-07T19:03:04.466Z,56.01
2023-03-07T19:05:41.343Z,55.94
2023-03-07T19:08:12.645Z,55.56
2023-03-07T19:10:40.674Z,55.49
2023-03-07T19:13:08.875Z,55.57
2023-03-07T19:16:01.457Z,56.30
2023-03-07T19:18:32.371Z,54.97
2023-03-07T19:21:03.079Z,55.59
2023-03-07T19:23:35.961Z,56.06
2023-03-07T19:26:06.574Z,55.06
2023-03-07T19:28:34.985Z,55.53
2023-03-07T19:31:19.352Z,56.11
2023-03-07T19:33:52.416Z,55.37
2023-03-07T19:36:27.077Z,55.05
2023-03-07T19:38:59.112Z,55.51
2023-03-07T19:41:31.490Z,55.46
2023-03-07T19:44:00.958Z,54.52
2023-03-07T19:46:29.277Z,54.23
2023-03-07T19:49:02.900Z,53.92
2023-03-07T19:51:30.854Z,53.80
2023-03-07T19:53:59.868Z,54.00
2023-03-07T19:56:29.465Z,53.53
2023-03-07T19:58:57.823Z,53.35
2023-03-07T20:01:26.003Z,53.17
2023-03-07T20:03:58.325Z,53.29
2023-03-07T20:06:31.842Z,53.51
2023-03-07T20:09:00.993Z,53.48
2023-03-07T20:11:30.778Z,53.78
2023-03-07T20:14:00.908Z,54.00
2023-03-07T20:16:38.694Z,54.64
2023-03-07T20:19:11.786Z,54.13
2023-03-07T20:21:42.431Z,53.33
2023-03-07T20:24:10.495Z,51.89
2023-03-07T20:26:41.206Z,51.76
2023-03-07T20:29:11.380Z,52.33
2023-03-07T20:31:40.674Z,53.25
2023-03-07T20:34:09.112Z,53.76
2023-03-07T20:36:40.148Z,53.89
2023-03-07T20:39:14.368Z,54.22
2023-03-07T20:41:42.953Z,53.51
2023-03-07T20:44:12.801Z,52.40
2023-03-07T20:46:41.378Z,52.96
2023-03-07T20:49:09.393Z,53.82
2023-03-07T20:51:37.882Z,54.57
2023-03-07T20:54:11.040Z,55.08
2023-03-07T20:56:40.858Z,54.49
2023-03-07T20:59:10.278Z,54.14
2023-03-07T21:01:39.012Z,54.11
2023-03-07T21:04:12.438Z,54.45
2023-03-07T21:06:42.004Z,54.03
2023-03-07T21:09:11.109Z,53.60
2023-03-07T21:11:46.072Z,53.71
2023-03-07T21:14:14.417Z,54.93
2023-03-07T21:16:48.119Z,54.47
2023-03-07T21:19:16.421Z,54.40
2023-03-07T21:21:51.691Z,54.75
2023-03-07T21:24:32.390Z,55.33
2023-03-07T21:27:02.305Z,55.05
2023-03-07T21:29:33.373Z,54.38
2023-03-07T21:32:04.095Z,53.70
2023-03-07T21:34:36.656Z,54.90
2023-03-07T21:37:05.767Z,55.13
2023-03-07T21:39:36.134Z,54.86
2023-03-07T21:42:14.702Z,54.74
2023-03-07T21:44:45.547Z,54.66
2023-03-07T21:47:23.901Z,54.10
2023-03-07T21:49:52.886Z,54.41
2023-03-07T21:52:20.991Z,55.23
2023-03-07T21:54:51.347Z,54.83
2023-03-07T21:57:27.369Z,54.58
2023-03-07T22:00:17.208Z,54.81
2023-03-07T22:02:45.360Z,54.65
2023-03-07T22:05:13.599Z,54.67
2023-03-07T22:07:44.366Z,55.14
2023-03-07T22:10:20.403Z,54.46
2023-03-07T22:12:52.767Z,54.01
2023-03-07T22:15:20.810Z,53.11
2023-03-07T22:17:51.453Z,53.13
2023-03-07T22:20:19.763Z,52.80
2023-03-07T22:22:56.293Z,53.08
2023-03-07T22:25:27.216Z,52.44
2023-03-07T22:28:16.677Z,53.47
2023-03-07T22:30:45.752Z,52.08
2023-03-07T22:33:14.006Z,53.93
2023-03-07T22:35:49.196Z,54.33
2023-03-07T22:38:20.936Z,54.19
2023-03-07T22:40:50.158Z,53.41
2023-03-07T22:43:19.719Z,53.85
2023-03-07T22:45:52.058Z,53.88
2023-03-07T22:48:23.400Z,54.16
2023-03-07T22:50:53.789Z,54.58
2023-03-07T22:53:24.860Z,54.44
2023-03-07T22:55:55.216Z,54.45
2023-03-07T22:58:24.827Z,54.75
2023-03-07T23:00:55.981Z,54.49
2023-03-07T23:03:24.399Z,55.46
2023-03-07T23:05:52.853Z,55.54
2023-03-07T23:08:29.964Z,56.01
2023-03-07T23:11:01.944Z,56.39
2023-03-07T23:13:34.053Z,56.53
2023-03-07T23:16:05.057Z,56.05
2023-03-07T23:18:38.702Z,57.51
2023-03-07T23:21:16.913Z,56.29
2023-03-07T23:23:45.226Z,56.08
2023-03-07T23:26:18.409Z,57.10
2023-03-07T23:28:48.635Z,56.42
2023-03-07T23:31:20.793Z,56.24
2023-03-07T23:34:00.429Z,56.52
2023-03-07T23:36:29.452Z,56.78
2023-03-07T23:38:57.934Z,56.39
2023-03-07T23:41:28.742Z,56.33
2023-03-07T23:43:59.798Z,57.13
2023-03-07T23:46:28.200Z,56.90
2023-03-07T23:49:02.139Z,56.76
2023-03-07T23:51:30.021Z,56.41
2023-03-07T23:54:03.185Z,57.11
2023-03-07T23:56:31.152Z,56.54
2023-03-07T23:59:03.020Z,57.85
